sensor_id;sensor_type;location;lat;lon;timestamp;P1;durP1;ratioP1;P2;durP2;ratioP2
68275;SDS011;55106;51.438;-0.098;2022-09-09T00:00:36;18.77;;;4.85;;
68275;SDS011;55106;51.438;-0.098;2022-09-09T00:08:24;23.23;;;4.80;;
68275;SDS011;55106;51.438;-0.098;2022-09-09T00:10:56;19.77;;;5.22;;
68275;SDS011;55106;51.438;-0.098;2022-09-09T00:21:04;20.13;;;4.67;;
68275;SDS011;55106;51.438;-0.098;2022-09-09T00:23:35;21.58;;;4.15;;
68275;SDS011;55106;51.438;-0.098;2022-09-09T00:28:28;22.43;;;5.83;;
68275;SDS011;55106;51.438;-0.098;2022-09-09T00:30:59;17.55;;;5.00;;
68275;SDS011;55106;51.438;-0.098;2022-09-09T00:33:26;22.98;;;4.95;;
68275;SDS011;55106;51.438;-0.098;2022-09-09T00:35:53;17.23;;;4.80;;
68275;SDS011;55106;51.438;-0.098;2022-09-09T00:38:40;15.32;;;4.40;;
68275;SDS011;55106;51.438;-0.098;2022-09-09T00:43:36;17.77;;;5.07;;
68275;SDS011;55106;51.438;-0.098;2022-09-09T00:46:08;25.85;;;5.50;;
68275;SDS011;55106;51.438;-0.098;2022-09-09T00:48:50;21.03;;;5.07;;
68275;SDS011;55106;51.438;-0.098;2022-09-09T00:56:37;15.10;;;4.65;;
68275;SDS011;55106;51.438;-0.098;2022-09-09T01:01:35;21.47;;;4.50;;
68275;SDS011;55106;51.438;-0.098;2022-09-09T01:04:01;22.42;;;4.50;;
68275;SDS011;55106;51.438;-0.098;2022-09-09T01:14:26;15.25;;;4.57;;
68275;SDS011;55106;51.438;-0.098;2022-09-09T01:16:56;15.32;;;4.75;;
68275;SDS011;55106;51.438;-0.098;2022-09-09T01:19:45;13.57;;;4.05;;
68275;SDS011;55106;51.438;-0.098;2022-09-09T01:27:30;15.25;;;3.88;;
68275;SDS011;55106;51.438;-0.098;2022-09-09T01:29:56;15.32;;;4.70;;
68275;SDS011;55106;51.438;-0.098;2022-09-09T01:35:10;12.57;;;4.20;;
68275;SDS011;55106;51.438;-0.098;2022-09-09T01:37:36;15.00;;;4.53;;
68275;SDS011;55106;51.438;-0.098;2022-09-09T01:40:02;16.67;;;4.38;;
68275;SDS011;55106;51.438;-0.098;2022-09-09T01:42:28;15.93;;;4.17;;
68275;SDS011;55106;51.438;-0.098;2022-09-09T01:44:53;20.57;;;4.93;;
68275;SDS011;55106;51.438;-0.098;2022-09-09T01:47:19;20.45;;;4.03;;
68275;SDS011;55106;51.438;-0.098;2022-09-09T01:49:44;15.97;;;4.07;;
68275;SDS011;55106;51.438;-0.098;2022-09-09T01:52:09;18.53;;;4.20;;
68275;SDS011;55106;51.438;-0.098;2022-09-09T01:54:35;16.30;;;3.87;;
68275;SDS011;55106;51.438;-0.098;2022-09-09T01:59:30;17.33;;;3.70;;
68275;SDS011;55106;51.438;-0.098;2022-09-09T02:02:00;13.65;;;3.80;;
68275;SDS011;55106;51.438;-0.098;2022-09-09T02:06:55;14.57;;;3.10;;
68275;SDS011;55106;51.438;-0.098;2022-09-09T02:09:22;13.17;;;3.30;;
68275;SDS011;55106;51.438;-0.098;2022-09-09T02:11:48;16.05;;;3.78;;
68275;SDS011;55106;51.438;-0.098;2022-09-09T02:14:21;13.82;;;3.30;;
68275;SDS011;55106;51.438;-0.098;2022-09-09T02:16:52;11.93;;;3.42;;
68275;SDS011;55106;51.438;-0.098;2022-09-09T02:19:27;16.95;;;4.10;;
68275;SDS011;55106;51.438;-0.098;2022-09-09T02:21:55;15.40;;;3.93;;
68275;SDS011;55106;51.438;-0.098;2022-09-09T02:24:22;17.10;;;4.05;;
68275;SDS011;55106;51.438;-0.098;2022-09-09T02:26:49;15.57;;;4.17;;
68275;SDS011;55106;51.438;-0.098;2022-09-09T02:29:21;17.77;;;3.78;;
68275;SDS011;55106;51.438;-0.098;2022-09-09T02:31:48;17.35;;;3.85;;
68275;SDS011;55106;51.438;-0.098;2022-09-09T02:34:14;14.37;;;4.30;;
68275;SDS011;55106;51.438;-0.098;2022-09-09T02:36:41;16.10;;;5.82;;
68275;SDS011;55106;51.438;-0.098;2022-09-09T02:39:08;17.88;;;4.32;;
68275;SDS011;55106;51.438;-0.098;2022-09-09T02:41:36;19.45;;;4.85;;
68275;SDS011;55106;51.438;-0.098;2022-09-09T02:44:02;16.27;;;5.10;;
68275;SDS011;55106;51.438;-0.098;2022-09-09T02:46:40;15.20;;;4.50;;
68275;SDS011;55106;51.438;-0.098;2022-09-09T02:49:10;13.85;;;3.95;;
68275;SDS011;55106;51.438;-0.098;2022-09-09T02:56:32;16.45;;;4.40;;
68275;SDS011;55106;51.438;-0.098;2022-09-09T02:59:05;17.17;;;4.40;;
68275;SDS011;55106;51.438;-0.098;2022-09-09T03:01:31;17.27;;;4.45;;
68275;SDS011;55106;51.438;-0.098;2022-09-09T03:03:56;20.75;;;4.63;;
68275;SDS011;55106;51.438;-0.098;2022-09-09T03:06:22;14.90;;;4.57;;
68275;SDS011;55106;51.438;-0.098;2022-09-09T03:08:47;13.73;;;4.47;;
68275;SDS011;55106;51.438;-0.098;2022-09-09T03:11:14;18.27;;;5.55;;
68275;SDS011;55106;51.438;-0.098;2022-09-09T03:13:40;17.20;;;4.30;;
68275;SDS011;55106;51.438;-0.098;2022-09-09T03:16:05;17.70;;;4.93;;
68275;SDS011;55106;51.438;-0.098;2022-09-09T03:18:30;18.37;;;4.53;;
68275;SDS011;55106;51.438;-0.098;2022-09-09T03:20:57;21.00;;;4.28;;
68275;SDS011;55106;51.438;-0.098;2022-09-09T03:23:24;12.85;;;4.07;;
68275;SDS011;55106;51.438;-0.098;2022-09-09T03:25:49;15.33;;;4.87;;
68275;SDS011;55106;51.438;-0.098;2022-09-09T03:28:16;15.07;;;4.63;;
68275;SDS011;55106;51.438;-0.098;2022-09-09T03:30:41;16.80;;;4.60;;
68275;SDS011;55106;51.438;-0.098;2022-09-09T03:33:06;18.63;;;4.63;;
68275;SDS011;55106;51.438;-0.098;2022-09-09T03:35:32;17.33;;;4.07;;
68275;SDS011;55106;51.438;-0.098;2022-09-09T03:37:57;18.00;;;5.10;;
68275;SDS011;55106;51.438;-0.098;2022-09-09T03:40:22;13.00;;;4.73;;
68275;SDS011;55106;51.438;-0.098;2022-09-09T03:42:47;22.87;;;5.17;;
68275;SDS011;55106;51.438;-0.098;2022-09-09T03:45:13;16.08;;;5.57;;
68275;SDS011;55106;51.438;-0.098;2022-09-09T03:47:39;22.20;;;5.07;;
68275;SDS011;55106;51.438;-0.098;2022-09-09T03:50:05;20.57;;;4.93;;
68275;SDS011;55106;51.438;-0.098;2022-09-09T03:52:34;15.30;;;4.57;;
68275;SDS011;55106;51.438;-0.098;2022-09-09T03:55:00;18.92;;;5.03;;
68275;SDS011;55106;51.438;-0.098;2022-09-09T03:57:26;17.05;;;5.07;;
68275;SDS011;55106;51.438;-0.098;2022-09-09T03:59:51;17.60;;;5.03;;
68275;SDS011;55106;51.438;-0.098;2022-09-09T04:02:17;12.50;;;4.40;;
68275;SDS011;55106;51.438;-0.098;2022-09-09T04:04:42;17.90;;;5.30;;
68275;SDS011;55106;51.438;-0.098;2022-09-09T04:07:07;16.23;;;4.60;;
68275;SDS011;55106;51.438;-0.098;2022-09-09T04:09:32;15.23;;;4.77;;
68275;SDS011;55106;51.438;-0.098;2022-09-09T04:11:58;17.40;;;4.77;;
68275;SDS011;55106;51.438;-0.098;2022-09-09T04:14:24;17.03;;;4.87;;
68275;SDS011;55106;51.438;-0.098;2022-09-09T04:16:53;13.82;;;4.95;;
68275;SDS011;55106;51.438;-0.098;2022-09-09T04:19:19;14.35;;;5.22;;
68275;SDS011;55106;51.438;-0.098;2022-09-09T04:21:44;16.10;;;5.30;;
68275;SDS011;55106;51.438;-0.098;2022-09-09T04:24:09;15.67;;;5.23;;
68275;SDS011;55106;51.438;-0.098;2022-09-09T04:26:35;15.53;;;4.60;;
68275;SDS011;55106;51.438;-0.098;2022-09-09T04:29:01;16.98;;;5.22;;
68275;SDS011;55106;51.438;-0.098;2022-09-09T04:31:26;13.27;;;4.57;;
68275;SDS011;55106;51.438;-0.098;2022-09-09T04:33:52;14.27;;;4.90;;
68275;SDS011;55106;51.438;-0.098;2022-09-09T04:36:18;15.17;;;5.07;;
68275;SDS011;55106;51.438;-0.098;2022-09-09T04:38:44;18.85;;;5.80;;
68275;SDS011;55106;51.438;-0.098;2022-09-09T04:41:09;13.60;;;5.37;;
68275;SDS011;55106;51.438;-0.098;2022-09-09T04:43:36;16.85;;;4.90;;
68275;SDS011;55106;51.438;-0.098;2022-09-09T04:46:02;23.80;;;6.15;;
68275;SDS011;55106;51.438;-0.098;2022-09-09T04:48:27;17.27;;;5.00;;
68275;SDS011;55106;51.438;-0.098;2022-09-09T04:50:53;13.73;;;5.43;;
68275;SDS011;55106;51.438;-0.098;2022-09-09T04:53:18;21.45;;;5.40;;
68275;SDS011;55106;51.438;-0.098;2022-09-09T04:55:44;14.77;;;5.03;;
68275;SDS011;55106;51.438;-0.098;2022-09-09T04:58:09;13.53;;;4.63;;
68275;SDS011;55106;51.438;-0.098;2022-09-09T05:00:34;16.00;;;5.30;;
68275;SDS011;55106;51.438;-0.098;2022-09-09T05:03:03;15.32;;;5.05;;
68275;SDS011;55106;51.438;-0.098;2022-09-09T05:05:29;18.05;;;5.20;;
68275;SDS011;55106;51.438;-0.098;2022-09-09T05:07:59;16.70;;;5.97;;
68275;SDS011;55106;51.438;-0.098;2022-09-09T05:10:25;15.60;;;5.60;;
68275;SDS011;55106;51.438;-0.098;2022-09-09T05:12:54;15.35;;;6.22;;
68275;SDS011;55106;51.438;-0.098;2022-09-09T05:15:19;15.00;;;6.10;;
68275;SDS011;55106;51.438;-0.098;2022-09-09T05:17:46;17.67;;;6.30;;
68275;SDS011;55106;51.438;-0.098;2022-09-09T05:20:11;16.90;;;6.50;;
68275;SDS011;55106;51.438;-0.098;2022-09-09T05:22:37;18.27;;;5.87;;
68275;SDS011;55106;51.438;-0.098;2022-09-09T05:25:02;18.47;;;5.97;;
68275;SDS011;55106;51.438;-0.098;2022-09-09T05:27:28;18.38;;;6.72;;
68275;SDS011;55106;51.438;-0.098;2022-09-09T05:29:53;22.80;;;6.80;;
68275;SDS011;55106;51.438;-0.098;2022-09-09T05:32:18;20.03;;;6.67;;
68275;SDS011;55106;51.438;-0.098;2022-09-09T05:34:44;21.17;;;6.83;;
68275;SDS011;55106;51.438;-0.098;2022-09-09T05:37:09;16.77;;;6.37;;
68275;SDS011;55106;51.438;-0.098;2022-09-09T05:39:35;19.50;;;6.88;;
68275;SDS011;55106;51.438;-0.098;2022-09-09T05:42:03;20.40;;;6.85;;
68275;SDS011;55106;51.438;-0.098;2022-09-09T05:44:29;19.03;;;6.73;;
68275;SDS011;55106;51.438;-0.098;2022-09-09T05:46:54;23.50;;;6.87;;
68275;SDS011;55106;51.438;-0.098;2022-09-09T05:49:20;25.43;;;7.13;;
68275;SDS011;55106;51.438;-0.098;2022-09-09T05:51:46;18.13;;;7.27;;
68275;SDS011;55106;51.438;-0.098;2022-09-09T05:54:12;20.65;;;8.00;;
68275;SDS011;55106;51.438;-0.098;2022-09-09T05:56:40;22.23;;;6.60;;
68275;SDS011;55106;51.438;-0.098;2022-09-09T05:59:05;19.43;;;7.43;;
68275;SDS011;55106;51.438;-0.098;2022-09-09T06:01:32;20.90;;;7.10;;
68275;SDS011;55106;51.438;-0.098;2022-09-09T06:03:57;19.48;;;7.15;;
68275;SDS011;55106;51.438;-0.098;2022-09-09T06:06:24;21.00;;;7.17;;
68275;SDS011;55106;51.438;-0.098;2022-09-09T06:08:51;20.73;;;8.32;;
68275;SDS011;55106;51.438;-0.098;2022-09-09T06:11:24;24.40;;;7.00;;
68275;SDS011;55106;51.438;-0.098;2022-09-09T06:13:49;19.38;;;7.30;;
68275;SDS011;55106;51.438;-0.098;2022-09-09T06:16:20;21.05;;;7.57;;
68275;SDS011;55106;51.438;-0.098;2022-09-09T06:18:48;22.83;;;7.88;;
68275;SDS011;55106;51.438;-0.098;2022-09-09T06:21:21;21.87;;;8.47;;
68275;SDS011;55106;51.438;-0.098;2022-09-09T06:23:47;23.95;;;8.30;;
68275;SDS011;55106;51.438;-0.098;2022-09-09T06:28:42;17.92;;;7.97;;
68275;SDS011;55106;51.438;-0.098;2022-09-09T06:31:08;20.97;;;7.77;;
68275;SDS011;55106;51.438;-0.098;2022-09-09T06:33:34;21.83;;;7.75;;
68275;SDS011;55106;51.438;-0.098;2022-09-09T06:36:00;18.63;;;7.03;;
68275;SDS011;55106;51.438;-0.098;2022-09-09T06:38:25;21.35;;;7.65;;
68275;SDS011;55106;51.438;-0.098;2022-09-09T06:40:54;24.63;;;8.27;;
68275;SDS011;55106;51.438;-0.098;2022-09-09T06:43:20;17.08;;;7.22;;
68275;SDS011;55106;51.438;-0.098;2022-09-09T06:46:02;20.47;;;7.40;;
68275;SDS011;55106;51.438;-0.098;2022-09-09T06:48:27;15.65;;;6.93;;
68275;SDS011;55106;51.438;-0.098;2022-09-09T06:51:00;17.97;;;7.57;;
68275;SDS011;55106;51.438;-0.098;2022-09-09T06:53:26;15.27;;;6.78;;
68275;SDS011;55106;51.438;-0.098;2022-09-09T06:55:52;17.00;;;7.07;;
68275;SDS011;55106;51.438;-0.098;2022-09-09T06:58:17;18.37;;;8.10;;
68275;SDS011;55106;51.438;-0.098;2022-09-09T07:00:43;20.87;;;7.20;;
68275;SDS011;55106;51.438;-0.098;2022-09-09T07:03:09;21.40;;;6.40;;
68275;SDS011;55106;51.438;-0.098;2022-09-09T07:05:34;21.58;;;7.30;;
68275;SDS011;55106;51.438;-0.098;2022-09-09T07:08:00;16.87;;;7.37;;
68275;SDS011;55106;51.438;-0.098;2022-09-09T07:10:25;15.20;;;7.00;;
68275;SDS011;55106;51.438;-0.098;2022-09-09T07:12:51;17.63;;;6.65;;
68275;SDS011;55106;51.438;-0.098;2022-09-09T07:15:17;16.17;;;6.13;;
68275;SDS011;55106;51.438;-0.098;2022-09-09T07:17:45;17.08;;;6.70;;
68275;SDS011;55106;51.438;-0.098;2022-09-09T07:20:11;12.95;;;6.20;;
68275;SDS011;55106;51.438;-0.098;2022-09-09T07:22:37;20.80;;;7.20;;
68275;SDS011;55106;51.438;-0.098;2022-09-09T07:25:02;17.03;;;6.90;;
68275;SDS011;55106;51.438;-0.098;2022-09-09T07:27:28;14.03;;;6.33;;
68275;SDS011;55106;51.438;-0.098;2022-09-09T07:29:53;17.43;;;6.37;;
68275;SDS011;55106;51.438;-0.098;2022-09-09T07:32:20;12.43;;;6.07;;
68275;SDS011;55106;51.438;-0.098;2022-09-09T07:34:45;15.98;;;7.10;;
68275;SDS011;55106;51.438;-0.098;2022-09-09T07:37:12;14.85;;;6.03;;
68275;SDS011;55106;51.438;-0.098;2022-09-09T07:39:38;17.15;;;6.50;;
68275;SDS011;55106;51.438;-0.098;2022-09-09T07:42:04;15.37;;;6.50;;
68275;SDS011;55106;51.438;-0.098;2022-09-09T07:44:30;14.35;;;7.03;;
68275;SDS011;55106;51.438;-0.098;2022-09-09T07:46:57;13.27;;;5.90;;
68275;SDS011;55106;51.438;-0.098;2022-09-09T07:49:22;14.40;;;5.93;;
68275;SDS011;55106;51.438;-0.098;2022-09-09T07:51:48;14.27;;;6.17;;
68275;SDS011;55106;51.438;-0.098;2022-09-09T07:54:15;13.07;;;5.53;;
68275;SDS011;55106;51.438;-0.098;2022-09-09T07:56:41;13.65;;;5.57;;
68275;SDS011;55106;51.438;-0.098;2022-09-09T07:59:06;14.77;;;6.40;;
68275;SDS011;55106;51.438;-0.098;2022-09-09T08:01:36;12.70;;;6.00;;
68275;SDS011;55106;51.438;-0.098;2022-09-09T08:04:05;11.60;;;5.05;;
68275;SDS011;55106;51.438;-0.098;2022-09-09T08:06:40;9.68;;;5.13;;
68275;SDS011;55106;51.438;-0.098;2022-09-09T08:09:06;12.48;;;5.05;;
68275;SDS011;55106;51.438;-0.098;2022-09-09T08:11:32;8.52;;;4.78;;
68275;SDS011;55106;51.438;-0.098;2022-09-09T08:13:58;11.10;;;4.80;;
68275;SDS011;55106;51.438;-0.098;2022-09-09T08:16:25;9.10;;;4.57;;
68275;SDS011;55106;51.438;-0.098;2022-09-09T08:18:51;12.23;;;5.50;;
68275;SDS011;55106;51.438;-0.098;2022-09-09T08:21:26;12.82;;;5.18;;
68275;SDS011;55106;51.438;-0.098;2022-09-09T08:23:53;13.13;;;5.87;;
68275;SDS011;55106;51.438;-0.098;2022-09-09T08:26:20;10.52;;;5.20;;
68275;SDS011;55106;51.438;-0.098;2022-09-09T08:28:47;9.93;;;5.15;;
68275;SDS011;55106;51.438;-0.098;2022-09-09T08:31:16;11.93;;;5.18;;
68275;SDS011;55106;51.438;-0.098;2022-09-09T08:33:43;10.67;;;4.63;;
68275;SDS011;55106;51.438;-0.098;2022-09-09T08:36:11;11.60;;;5.97;;
68275;SDS011;55106;51.438;-0.098;2022-09-09T08:38:36;14.13;;;5.85;;
68275;SDS011;55106;51.438;-0.098;2022-09-09T08:43:46;10.70;;;6.13;;
68275;SDS011;55106;51.438;-0.098;2022-09-09T08:49:06;11.93;;;6.50;;
68275;SDS011;55106;51.438;-0.098;2022-09-09T08:51:38;11.02;;;6.22;;
68275;SDS011;55106;51.438;-0.098;2022-09-09T08:54:04;11.80;;;6.37;;
68275;SDS011;55106;51.438;-0.098;2022-09-09T08:56:30;13.70;;;7.03;;
68275;SDS011;55106;51.438;-0.098;2022-09-09T08:58:56;13.52;;;7.40;;
68275;SDS011;55106;51.438;-0.098;2022-09-09T09:09:55;12.65;;;6.90;;
68275;SDS011;55106;51.438;-0.098;2022-09-09T09:12:26;13.50;;;7.30;;
68275;SDS011;55106;51.438;-0.098;2022-09-09T09:14:51;15.45;;;7.38;;
68275;SDS011;55106;51.438;-0.098;2022-09-09T09:17:18;12.23;;;6.97;;
68275;SDS011;55106;51.438;-0.098;2022-09-09T09:19:44;12.67;;;6.63;;
68275;SDS011;55106;51.438;-0.098;2022-09-09T09:24:57;14.45;;;7.10;;
68275;SDS011;55106;51.438;-0.098;2022-09-09T09:27:33;14.82;;;7.35;;
68275;SDS011;55106;51.438;-0.098;2022-09-09T09:29:59;14.95;;;7.60;;
68275;SDS011;55106;51.438;-0.098;2022-09-09T09:32:25;16.43;;;7.60;;
68275;SDS011;55106;51.438;-0.098;2022-09-09T09:34:54;16.48;;;8.38;;
68275;SDS011;55106;51.438;-0.098;2022-09-09T09:37:29;15.48;;;8.07;;
68275;SDS011;55106;51.438;-0.098;2022-09-09T09:39:55;14.65;;;7.95;;
68275;SDS011;55106;51.438;-0.098;2022-09-09T09:42:20;15.13;;;8.10;;
68275;SDS011;55106;51.438;-0.098;2022-09-09T09:44:46;17.67;;;8.70;;
68275;SDS011;55106;51.438;-0.098;2022-09-09T09:47:12;16.10;;;8.13;;
68275;SDS011;55106;51.438;-0.098;2022-09-09T09:50:15;20.63;;;8.75;;
68275;SDS011;55106;51.438;-0.098;2022-09-09T09:52:30;17.27;;;8.35;;
68275;SDS011;55106;51.438;-0.098;2022-09-09T09:54:56;17.92;;;8.88;;
68275;SDS011;55106;51.438;-0.098;2022-09-09T09:57:26;16.83;;;9.52;;
68275;SDS011;55106;51.438;-0.098;2022-09-09T10:00:00;19.20;;;9.30;;
68275;SDS011;55106;51.438;-0.098;2022-09-09T10:02:31;17.85;;;9.02;;
68275;SDS011;55106;51.438;-0.098;2022-09-09T10:05:06;14.73;;;7.45;;
68275;SDS011;55106;51.438;-0.098;2022-09-09T10:07:31;17.65;;;9.23;;
68275;SDS011;55106;51.438;-0.098;2022-09-09T10:09:58;14.35;;;7.70;;
68275;SDS011;55106;51.438;-0.098;2022-09-09T10:20:32;16.73;;;8.27;;
68275;SDS011;55106;51.438;-0.098;2022-09-09T10:23:05;15.82;;;8.40;;
68275;SDS011;55106;51.438;-0.098;2022-09-09T10:28:16;18.50;;;9.40;;
68275;SDS011;55106;51.438;-0.098;2022-09-09T10:30:52;17.40;;;9.07;;
68275;SDS011;55106;51.438;-0.098;2022-09-09T10:33:23;17.02;;;9.10;;
68275;SDS011;55106;51.438;-0.098;2022-09-09T10:36:01;18.27;;;9.52;;
68275;SDS011;55106;51.438;-0.098;2022-09-09T10:38:43;16.35;;;8.02;;
68275;SDS011;55106;51.438;-0.098;2022-09-09T10:41:22;18.45;;;8.90;;
68275;SDS011;55106;51.438;-0.098;2022-09-09T10:57:01;20.60;;;9.57;;
68275;SDS011;55106;51.438;-0.098;2022-09-09T10:59:31;22.20;;;10.60;;
68275;SDS011;55106;51.438;-0.098;2022-09-09T11:02:06;22.33;;;10.60;;
68275;SDS011;55106;51.438;-0.098;2022-09-09T11:04:40;21.95;;;10.93;;
68275;SDS011;55106;51.438;-0.098;2022-09-09T11:07:07;19.90;;;11.13;;
68275;SDS011;55106;51.438;-0.098;2022-09-09T11:09:36;16.33;;;9.03;;
68275;SDS011;55106;51.438;-0.098;2022-09-09T11:12:04;13.73;;;8.73;;
68275;SDS011;55106;51.438;-0.098;2022-09-09T11:14:43;15.70;;;7.85;;
68275;SDS011;55106;51.438;-0.098;2022-09-09T11:17:11;12.23;;;6.90;;
68275;SDS011;55106;51.438;-0.098;2022-09-09T11:19:44;14.82;;;7.15;;
68275;SDS011;55106;51.438;-0.098;2022-09-09T11:25:05;9.27;;;5.43;;
68275;SDS011;55106;51.438;-0.098;2022-09-09T11:27:37;10.40;;;5.47;;
68275;SDS011;55106;51.438;-0.098;2022-09-09T11:30:10;11.13;;;5.50;;
68275;SDS011;55106;51.438;-0.098;2022-09-09T11:40:42;13.73;;;6.22;;
68275;SDS011;55106;51.438;-0.098;2022-09-09T11:43:09;14.10;;;6.40;;
68275;SDS011;55106;51.438;-0.098;2022-09-09T11:45:37;10.53;;;6.20;;
68275;SDS011;55106;51.438;-0.098;2022-09-09T11:48:04;10.10;;;5.18;;
68275;SDS011;55106;51.438;-0.098;2022-09-09T11:55:40;9.45;;;4.60;;
68275;SDS011;55106;51.438;-0.098;2022-09-09T11:58:06;8.07;;;4.53;;
68275;SDS011;55106;51.438;-0.098;2022-09-09T12:00:46;10.02;;;5.18;;
68275;SDS011;55106;51.438;-0.098;2022-09-09T12:05:56;9.17;;;4.87;;
68275;SDS011;55106;51.438;-0.098;2022-09-09T12:08:25;7.68;;;4.38;;
68275;SDS011;55106;51.438;-0.098;2022-09-09T12:10:55;12.70;;;4.95;;
68275;SDS011;55106;51.438;-0.098;2022-09-09T12:13:23;9.30;;;4.75;;
68275;SDS011;55106;51.438;-0.098;2022-09-09T12:15:57;9.63;;;4.30;;
68275;SDS011;55106;51.438;-0.098;2022-09-09T12:18:33;8.83;;;5.13;;
68275;SDS011;55106;51.438;-0.098;2022-09-09T12:21:12;8.68;;;4.65;;
68275;SDS011;55106;51.438;-0.098;2022-09-09T12:24:11;8.68;;;4.32;;
68275;SDS011;55106;51.438;-0.098;2022-09-09T12:29:50;7.88;;;3.97;;
68275;SDS011;55106;51.438;-0.098;2022-09-09T12:32:23;9.33;;;3.90;;
68275;SDS011;55106;51.438;-0.098;2022-09-09T12:34:54;8.30;;;3.53;;
68275;SDS011;55106;51.438;-0.098;2022-09-09T12:37:45;9.75;;;3.85;;
68275;SDS011;55106;51.438;-0.098;2022-09-09T12:40:23;6.93;;;3.70;;
68275;SDS011;55106;51.438;-0.098;2022-09-09T12:42:50;7.25;;;3.60;;
68275;SDS011;55106;51.438;-0.098;2022-09-09T12:45:17;6.97;;;3.33;;
68275;SDS011;55106;51.438;-0.098;2022-09-09T12:47:46;8.75;;;3.70;;
68275;SDS011;55106;51.438;-0.098;2022-09-09T12:50:17;8.05;;;3.30;;
68275;SDS011;55106;51.438;-0.098;2022-09-09T12:52:46;11.68;;;5.70;;
68275;SDS011;55106;51.438;-0.098;2022-09-09T12:55:21;13.68;;;6.00;;
68275;SDS011;55106;51.438;-0.098;2022-09-09T12:57:50;9.13;;;4.27;;
68275;SDS011;55106;51.438;-0.098;2022-09-09T13:00:18;7.93;;;3.20;;
68275;SDS011;55106;51.438;-0.098;2022-09-09T13:02:52;7.05;;;3.05;;
68275;SDS011;55106;51.438;-0.098;2022-09-09T13:07:49;5.97;;;2.88;;
68275;SDS011;55106;51.438;-0.098;2022-09-09T13:10:19;6.87;;;2.80;;
68275;SDS011;55106;51.438;-0.098;2022-09-09T13:12:49;7.00;;;3.00;;
68275;SDS011;55106;51.438;-0.098;2022-09-09T13:15:25;6.82;;;3.30;;
68275;SDS011;55106;51.438;-0.098;2022-09-09T13:17:54;6.70;;;3.10;;
68275;SDS011;55106;51.438;-0.098;2022-09-09T13:20:22;7.13;;;3.20;;
68275;SDS011;55106;51.438;-0.098;2022-09-09T13:22:50;7.68;;;3.20;;
68275;SDS011;55106;51.438;-0.098;2022-09-09T13:25:21;6.03;;;2.80;;
68275;SDS011;55106;51.438;-0.098;2022-09-09T13:27:56;7.07;;;2.80;;
68275;SDS011;55106;51.438;-0.098;2022-09-09T13:33:06;6.93;;;2.87;;
68275;SDS011;55106;51.438;-0.098;2022-09-09T13:35:49;6.93;;;3.00;;
68275;SDS011;55106;51.438;-0.098;2022-09-09T13:38:18;5.88;;;3.00;;
68275;SDS011;55106;51.438;-0.098;2022-09-09T13:43:46;8.57;;;3.20;;
68275;SDS011;55106;51.438;-0.098;2022-09-09T13:49:01;6.68;;;2.75;;
68275;SDS011;55106;51.438;-0.098;2022-09-09T13:51:32;5.67;;;2.40;;
68275;SDS011;55106;51.438;-0.098;2022-09-09T13:53:59;6.43;;;2.65;;
68275;SDS011;55106;51.438;-0.098;2022-09-09T13:56:25;6.18;;;2.70;;
68275;SDS011;55106;51.438;-0.098;2022-09-09T13:58:51;7.00;;;2.93;;
68275;SDS011;55106;51.438;-0.098;2022-09-09T14:01:19;6.90;;;2.75;;
68275;SDS011;55106;51.438;-0.098;2022-09-09T14:03:45;7.47;;;2.80;;
68275;SDS011;55106;51.438;-0.098;2022-09-09T14:06:10;8.15;;;2.70;;
68275;SDS011;55106;51.438;-0.098;2022-09-09T14:08:36;7.20;;;3.10;;
68275;SDS011;55106;51.438;-0.098;2022-09-09T14:11:05;10.38;;;3.10;;
68275;SDS011;55106;51.438;-0.098;2022-09-09T14:13:35;6.43;;;3.28;;
68275;SDS011;55106;51.438;-0.098;2022-09-09T14:16:02;6.60;;;3.07;;
68275;SDS011;55106;51.438;-0.098;2022-09-09T14:18:28;5.68;;;2.70;;
68275;SDS011;55106;51.438;-0.098;2022-09-09T14:20:54;6.57;;;2.83;;
68275;SDS011;55106;51.438;-0.098;2022-09-09T14:23:19;8.03;;;2.60;;
68275;SDS011;55106;51.438;-0.098;2022-09-09T14:25:47;8.00;;;2.80;;
68275;SDS011;55106;51.438;-0.098;2022-09-09T14:28:14;6.78;;;2.60;;
68275;SDS011;55106;51.438;-0.098;2022-09-09T14:30:40;8.05;;;2.97;;
68275;SDS011;55106;51.438;-0.098;2022-09-09T14:33:07;7.43;;;2.87;;
68275;SDS011;55106;51.438;-0.098;2022-09-09T14:35:33;6.93;;;3.63;;
68275;SDS011;55106;51.438;-0.098;2022-09-09T14:37:59;5.70;;;2.90;;
68275;SDS011;55106;51.438;-0.098;2022-09-09T14:40:26;6.20;;;3.03;;
68275;SDS011;55106;51.438;-0.098;2022-09-09T14:42:52;7.63;;;3.00;;
68275;SDS011;55106;51.438;-0.098;2022-09-09T14:45:18;6.03;;;2.95;;
68275;SDS011;55106;51.438;-0.098;2022-09-09T14:47:44;8.52;;;2.90;;
68275;SDS011;55106;51.438;-0.098;2022-09-09T14:50:10;9.33;;;3.30;;
68275;SDS011;55106;51.438;-0.098;2022-09-09T14:52:37;7.72;;;2.90;;
68275;SDS011;55106;51.438;-0.098;2022-09-09T14:55:03;6.75;;;3.00;;
68275;SDS011;55106;51.438;-0.098;2022-09-09T14:57:29;6.53;;;2.87;;
68275;SDS011;55106;51.438;-0.098;2022-09-09T14:59:55;7.75;;;3.00;;
68275;SDS011;55106;51.438;-0.098;2022-09-09T15:02:21;7.13;;;3.15;;
68275;SDS011;55106;51.438;-0.098;2022-09-09T15:04:47;6.70;;;2.60;;
68275;SDS011;55106;51.438;-0.098;2022-09-09T15:07:14;7.30;;;2.70;;
68275;SDS011;55106;51.438;-0.098;2022-09-09T15:09:42;6.22;;;2.80;;
68275;SDS011;55106;51.438;-0.098;2022-09-09T15:12:07;6.50;;;2.37;;
68275;SDS011;55106;51.438;-0.098;2022-09-09T15:14:33;5.38;;;2.67;;
68275;SDS011;55106;51.438;-0.098;2022-09-09T15:16:59;6.18;;;2.70;;
68275;SDS011;55106;51.438;-0.098;2022-09-09T15:19:25;6.97;;;2.83;;
68275;SDS011;55106;51.438;-0.098;2022-09-09T15:21:51;7.03;;;2.40;;
68275;SDS011;55106;51.438;-0.098;2022-09-09T15:24:16;5.40;;;2.20;;
68275;SDS011;55106;51.438;-0.098;2022-09-09T15:26:42;5.77;;;2.40;;
68275;SDS011;55106;51.438;-0.098;2022-09-09T15:29:07;6.73;;;2.10;;
68275;SDS011;55106;51.438;-0.098;2022-09-09T15:31:33;5.25;;;2.25;;
68275;SDS011;55106;51.438;-0.098;2022-09-09T15:34:03;4.60;;;1.60;;
68275;SDS011;55106;51.438;-0.098;2022-09-09T15:36:33;6.13;;;1.70;;
68275;SDS011;55106;51.438;-0.098;2022-09-09T15:39:05;6.43;;;2.10;;
68275;SDS011;55106;51.438;-0.098;2022-09-09T15:41:32;6.68;;;1.50;;
68275;SDS011;55106;51.438;-0.098;2022-09-09T15:43:58;5.93;;;2.00;;
68275;SDS011;55106;51.438;-0.098;2022-09-09T15:46:58;4.55;;;1.73;;
68275;SDS011;55106;51.438;-0.098;2022-09-09T15:49:22;6.38;;;2.15;;
68275;SDS011;55106;51.438;-0.098;2022-09-09T15:54:21;7.23;;;2.70;;
68275;SDS011;55106;51.438;-0.098;2022-09-09T15:56:53;6.80;;;3.33;;
68275;SDS011;55106;51.438;-0.098;2022-09-09T15:59:21;5.93;;;2.90;;
68275;SDS011;55106;51.438;-0.098;2022-09-09T16:01:50;8.85;;;3.08;;
68275;SDS011;55106;51.438;-0.098;2022-09-09T16:04:20;6.38;;;3.10;;
68275;SDS011;55106;51.438;-0.098;2022-09-09T16:06:53;7.63;;;3.43;;
68275;SDS011;55106;51.438;-0.098;2022-09-09T16:09:20;7.43;;;4.00;;
68275;SDS011;55106;51.438;-0.098;2022-09-09T16:11:46;9.18;;;3.70;;
68275;SDS011;55106;51.438;-0.098;2022-09-09T16:14:18;8.53;;;3.60;;
68275;SDS011;55106;51.438;-0.098;2022-09-09T16:16:44;7.93;;;3.80;;
68275;SDS011;55106;51.438;-0.098;2022-09-09T16:19:10;8.85;;;4.47;;
68275;SDS011;55106;51.438;-0.098;2022-09-09T16:21:41;8.37;;;3.50;;
68275;SDS011;55106;51.438;-0.098;2022-09-09T16:24:09;7.53;;;4.03;;
68275;SDS011;55106;51.438;-0.098;2022-09-09T16:26:37;9.65;;;4.10;;
68275;SDS011;55106;51.438;-0.098;2022-09-09T16:29:04;10.18;;;4.35;;
68275;SDS011;55106;51.438;-0.098;2022-09-09T16:31:30;10.50;;;4.57;;
68275;SDS011;55106;51.438;-0.098;2022-09-09T16:33:59;8.98;;;4.40;;
68275;SDS011;55106;51.438;-0.098;2022-09-09T16:36:25;9.00;;;4.25;;
68275;SDS011;55106;51.438;-0.098;2022-09-09T16:38:56;10.47;;;3.90;;
68275;SDS011;55106;51.438;-0.098;2022-09-09T16:41:26;8.43;;;4.32;;